sensor_id;sensor_type;location;lat;lon;timestamp;P1;durP1;ratioP1;P2;durP2;ratioP2
78840;SDS011;68379;47.190;27.558;2023-07-08T00:00:51;8.90;;;6.10;;
78840;SDS011;68379;47.190;27.558;2023-07-08T00:03:40;10.40;;;7.40;;
78840;SDS011;68379;47.190;27.558;2023-07-08T00:06:11;8.50;;;6.10;;
78840;SDS011;68379;47.190;27.558;2023-07-08T00:08:43;9.40;;;6.20;;
78840;SDS011;68379;47.190;27.558;2023-07-08T00:11:13;11.50;;;6.70;;
78840;SDS011;68379;47.190;27.558;2023-07-08T00:13:44;9.10;;;5.90;;
78840;SDS011;68379;47.190;27.558;2023-07-08T00:16:14;12.10;;;6.60;;
78840;SDS011;68379;47.190;27.558;2023-07-08T00:18:44;9.80;;;5.90;;
78840;SDS011;68379;47.190;27.558;2023-07-08T00:21:14;8.80;;;6.40;;
78840;SDS011;68379;47.190;27.558;2023-07-08T00:23:44;9.20;;;6.30;;
78840;SDS011;68379;47.190;27.558;2023-07-08T00:26:15;9.20;;;6.70;;
78840;SDS011;68379;47.190;27.558;2023-07-08T00:28:46;9.10;;;6.60;;
78840;SDS011;68379;47.190;27.558;2023-07-08T00:31:16;10.10;;;7.10;;
78840;SDS011;68379;47.190;27.558;2023-07-08T00:33:51;9.60;;;6.90;;
78840;SDS011;68379;47.190;27.558;2023-07-08T00:36:22;10.70;;;6.90;;
78840;SDS011;68379;47.190;27.558;2023-07-08T00:38:53;11.30;;;7.20;;
78840;SDS011;68379;47.190;27.558;2023-07-08T00:41:22;9.20;;;7.00;;
78840;SDS011;68379;47.190;27.558;2023-07-08T00:43:56;10.30;;;6.90;;
78840;SDS011;68379;47.190;27.558;2023-07-08T00:46:31;11.30;;;7.10;;
78840;SDS011;68379;47.190;27.558;2023-07-08T00:49:11;9.30;;;5.90;;
78840;SDS011;68379;47.190;27.558;2023-07-08T00:51:52;10.60;;;6.50;;
78840;SDS011;68379;47.190;27.558;2023-07-08T00:54:21;6.90;;;5.20;;
78840;SDS011;68379;47.190;27.558;2023-07-08T00:56:51;9.90;;;6.00;;
78840;SDS011;68379;47.190;27.558;2023-07-08T00:59:25;9.40;;;6.10;;
78840;SDS011;68379;47.190;27.558;2023-07-08T01:01:57;9.50;;;6.30;;
78840;SDS011;68379;47.190;27.558;2023-07-08T01:04:30;9.60;;;6.10;;
78840;SDS011;68379;47.190;27.558;2023-07-08T01:07:09;10.10;;;7.30;;
78840;SDS011;68379;47.190;27.558;2023-07-08T01:09:40;9.00;;;5.20;;
78840;SDS011;68379;47.190;27.558;2023-07-08T01:12:14;8.90;;;6.20;;
78840;SDS011;68379;47.190;27.558;2023-07-08T01:14:46;9.20;;;5.90;;
78840;SDS011;68379;47.190;27.558;2023-07-08T01:17:16;8.20;;;5.70;;
78840;SDS011;68379;47.190;27.558;2023-07-08T01:19:45;9.40;;;6.00;;
78840;SDS011;68379;47.190;27.558;2023-07-08T01:22:15;7.60;;;5.70;;
78840;SDS011;68379;47.190;27.558;2023-07-08T01:24:44;6.70;;;5.00;;
78840;SDS011;68379;47.190;27.558;2023-07-08T01:27:14;7.30;;;5.40;;
78840;SDS011;68379;47.190;27.558;2023-07-08T01:29:46;10.10;;;5.30;;
78840;SDS011;68379;47.190;27.558;2023-07-08T01:32:15;8.40;;;5.20;;
78840;SDS011;68379;47.190;27.558;2023-07-08T01:34:46;9.90;;;5.60;;
78840;SDS011;68379;47.190;27.558;2023-07-08T01:37:30;7.10;;;4.50;;
78840;SDS011;68379;47.190;27.558;2023-07-08T01:43:01;8.50;;;5.10;;
78840;SDS011;68379;47.190;27.558;2023-07-08T01:45:34;7.20;;;4.90;;
78840;SDS011;68379;47.190;27.558;2023-07-08T01:48:06;5.90;;;4.10;;
78840;SDS011;68379;47.190;27.558;2023-07-08T01:50:42;10.00;;;4.60;;
78840;SDS011;68379;47.190;27.558;2023-07-08T01:53:17;7.90;;;4.80;;
78840;SDS011;68379;47.190;27.558;2023-07-08T01:55:49;6.10;;;4.40;;
78840;SDS011;68379;47.190;27.558;2023-07-08T01:58:18;7.40;;;4.00;;
78840;SDS011;68379;47.190;27.558;2023-07-08T02:00:47;6.50;;;3.70;;
78840;SDS011;68379;47.190;27.558;2023-07-08T02:03:16;6.40;;;4.70;;
78840;SDS011;68379;47.190;27.558;2023-07-08T02:05:45;7.40;;;3.70;;
78840;SDS011;68379;47.190;27.558;2023-07-08T02:08:14;6.40;;;3.70;;
78840;SDS011;68379;47.190;27.558;2023-07-08T02:10:43;5.20;;;3.80;;
78840;SDS011;68379;47.190;27.558;2023-07-08T02:13:19;5.30;;;3.60;;
78840;SDS011;68379;47.190;27.558;2023-07-08T02:15:49;6.00;;;3.80;;
78840;SDS011;68379;47.190;27.558;2023-07-08T02:18:18;5.40;;;3.30;;
78840;SDS011;68379;47.190;27.558;2023-07-08T02:20:47;9.00;;;3.80;;
78840;SDS011;68379;47.190;27.558;2023-07-08T02:23:16;7.20;;;3.20;;
78840;SDS011;68379;47.190;27.558;2023-07-08T02:25:51;10.00;;;3.60;;
78840;SDS011;68379;47.190;27.558;2023-07-08T02:28:20;5.10;;;3.90;;
78840;SDS011;68379;47.190;27.558;2023-07-08T02:30:50;8.40;;;3.30;;
78840;SDS011;68379;47.190;27.558;2023-07-08T02:33:19;5.30;;;3.90;;
78840;SDS011;68379;47.190;27.558;2023-07-08T02:35:55;7.20;;;3.50;;
78840;SDS011;68379;47.190;27.558;2023-07-08T02:38:24;7.10;;;3.30;;
78840;SDS011;68379;47.190;27.558;2023-07-08T02:40:53;5.90;;;3.40;;
78840;SDS011;68379;47.190;27.558;2023-07-08T02:43:22;7.50;;;3.70;;
78840;SDS011;68379;47.190;27.558;2023-07-08T02:45:50;4.90;;;3.10;;
78840;SDS011;68379;47.190;27.558;2023-07-08T02:48:19;5.60;;;3.00;;
78840;SDS011;68379;47.190;27.558;2023-07-08T02:50:49;6.20;;;3.30;;
78840;SDS011;68379;47.190;27.558;2023-07-08T02:53:18;5.20;;;3.30;;
78840;SDS011;68379;47.190;27.558;2023-07-08T02:55:47;6.60;;;3.40;;
78840;SDS011;68379;47.190;27.558;2023-07-08T02:58:15;6.10;;;3.20;;
78840;SDS011;68379;47.190;27.558;2023-07-08T03:00:44;7.80;;;3.50;;
78840;SDS011;68379;47.190;27.558;2023-07-08T03:03:18;7.10;;;3.80;;
78840;SDS011;68379;47.190;27.558;2023-07-08T03:05:54;4.90;;;2.70;;
78840;SDS011;68379;47.190;27.558;2023-07-08T03:08:25;4.40;;;3.20;;
78840;SDS011;68379;47.190;27.558;2023-07-08T03:10:55;4.60;;;3.10;;
78840;SDS011;68379;47.190;27.558;2023-07-08T03:13:26;4.20;;;2.70;;
78840;SDS011;68379;47.190;27.558;2023-07-08T03:15:55;5.50;;;3.00;;
78840;SDS011;68379;47.190;27.558;2023-07-08T03:18:26;6.80;;;3.50;;
78840;SDS011;68379;47.190;27.558;2023-07-08T03:20:55;4.40;;;2.80;;
78840;SDS011;68379;47.190;27.558;2023-07-08T03:23:25;4.50;;;3.00;;
78840;SDS011;68379;47.190;27.558;2023-07-08T03:25:54;5.60;;;3.10;;
78840;SDS011;68379;47.190;27.558;2023-07-08T03:28:23;6.30;;;3.00;;
78840;SDS011;68379;47.190;27.558;2023-07-08T03:30:52;5.50;;;3.50;;
78840;SDS011;68379;47.190;27.558;2023-07-08T03:33:22;10.60;;;2.70;;
78840;SDS011;68379;47.190;27.558;2023-07-08T03:35:50;4.20;;;2.90;;
78840;SDS011;68379;47.190;27.558;2023-07-08T03:38:19;6.40;;;2.70;;
78840;SDS011;68379;47.190;27.558;2023-07-08T03:40:49;8.10;;;3.60;;
78840;SDS011;68379;47.190;27.558;2023-07-08T03:43:18;5.10;;;3.40;;
78840;SDS011;68379;47.190;27.558;2023-07-08T03:45:47;6.80;;;3.20;;
78840;SDS011;68379;47.190;27.558;2023-07-08T03:48:16;11.80;;;4.60;;
78840;SDS011;68379;47.190;27.558;2023-07-08T03:50:45;4.70;;;3.30;;
78840;SDS011;68379;47.190;27.558;2023-07-08T03:53:14;8.60;;;3.00;;
78840;SDS011;68379;47.190;27.558;2023-07-08T03:55:43;4.30;;;3.10;;
78840;SDS011;68379;47.190;27.558;2023-07-08T03:58:12;5.80;;;3.20;;
78840;SDS011;68379;47.190;27.558;2023-07-08T04:00:41;6.10;;;3.70;;
78840;SDS011;68379;47.190;27.558;2023-07-08T04:03:11;5.40;;;3.20;;
78840;SDS011;68379;47.190;27.558;2023-07-08T04:05:40;8.70;;;3.50;;
78840;SDS011;68379;47.190;27.558;2023-07-08T04:08:08;5.20;;;3.50;;
78840;SDS011;68379;47.190;27.558;2023-07-08T04:10:37;6.20;;;3.40;;
78840;SDS011;68379;47.190;27.558;2023-07-08T04:13:06;4.60;;;3.00;;
78840;SDS011;68379;47.190;27.558;2023-07-08T04:15:35;6.50;;;3.40;;
78840;SDS011;68379;47.190;27.558;2023-07-08T04:18:05;6.80;;;3.20;;
78840;SDS011;68379;47.190;27.558;2023-07-08T04:20:34;4.40;;;3.10;;
78840;SDS011;68379;47.190;27.558;2023-07-08T04:23:03;6.10;;;3.40;;
78840;SDS011;68379;47.190;27.558;2023-07-08T04:25:32;6.60;;;3.50;;
78840;SDS011;68379;47.190;27.558;2023-07-08T04:28:00;6.60;;;3.40;;
78840;SDS011;68379;47.190;27.558;2023-07-08T04:30:29;5.00;;;2.80;;
78840;SDS011;68379;47.190;27.558;2023-07-08T04:32:58;5.00;;;3.00;;
78840;SDS011;68379;47.190;27.558;2023-07-08T04:35:27;6.50;;;2.80;;
78840;SDS011;68379;47.190;27.558;2023-07-08T04:37:56;4.70;;;3.20;;
78840;SDS011;68379;47.190;27.558;2023-07-08T04:40:25;5.00;;;3.50;;
78840;SDS011;68379;47.190;27.558;2023-07-08T04:42:54;4.20;;;2.90;;
78840;SDS011;68379;47.190;27.558;2023-07-08T04:45:23;4.00;;;3.20;;
78840;SDS011;68379;47.190;27.558;2023-07-08T04:47:52;5.90;;;3.70;;
78840;SDS011;68379;47.190;27.558;2023-07-08T04:50:21;4.70;;;3.10;;
78840;SDS011;68379;47.190;27.558;2023-07-08T04:52:50;5.20;;;2.90;;
78840;SDS011;68379;47.190;27.558;2023-07-08T04:55:19;6.40;;;3.20;;
78840;SDS011;68379;47.190;27.558;2023-07-08T04:57:49;4.70;;;2.80;;
78840;SDS011;68379;47.190;27.558;2023-07-08T05:00:18;6.40;;;3.80;;
78840;SDS011;68379;47.190;27.558;2023-07-08T05:02:47;3.70;;;2.50;;
78840;SDS011;68379;47.190;27.558;2023-07-08T05:05:16;5.60;;;2.80;;
78840;SDS011;68379;47.190;27.558;2023-07-08T05:07:45;4.30;;;2.90;;
78840;SDS011;68379;47.190;27.558;2023-07-08T05:10:16;4.90;;;2.70;;
78840;SDS011;68379;47.190;27.558;2023-07-08T05:12:46;6.20;;;3.00;;
78840;SDS011;68379;47.190;27.558;2023-07-08T05:15:15;4.70;;;2.90;;
78840;SDS011;68379;47.190;27.558;2023-07-08T05:17:45;5.40;;;3.20;;
78840;SDS011;68379;47.190;27.558;2023-07-08T05:20:14;3.40;;;2.40;;
78840;SDS011;68379;47.190;27.558;2023-07-08T05:22:45;4.70;;;2.80;;
78840;SDS011;68379;47.190;27.558;2023-07-08T05:25:15;4.40;;;2.80;;
78840;SDS011;68379;47.190;27.558;2023-07-08T05:27:46;7.50;;;3.00;;
78840;SDS011;68379;47.190;27.558;2023-07-08T05:30:16;3.90;;;2.40;;
78840;SDS011;68379;47.190;27.558;2023-07-08T05:32:45;9.20;;;3.10;;
78840;SDS011;68379;47.190;27.558;2023-07-08T05:35:15;6.90;;;3.80;;
78840;SDS011;68379;47.190;27.558;2023-07-08T05:37:43;8.10;;;2.80;;
78840;SDS011;68379;47.190;27.558;2023-07-08T05:40:14;6.00;;;3.00;;
78840;SDS011;68379;47.190;27.558;2023-07-08T05:42:43;4.30;;;2.90;;
78840;SDS011;68379;47.190;27.558;2023-07-08T05:45:12;6.30;;;2.70;;
78840;SDS011;68379;47.190;27.558;2023-07-08T05:47:41;6.80;;;2.90;;
78840;SDS011;68379;47.190;27.558;2023-07-08T05:50:10;4.90;;;3.00;;
78840;SDS011;68379;47.190;27.558;2023-07-08T05:52:39;3.90;;;2.90;;
78840;SDS011;68379;47.190;27.558;2023-07-08T05:55:09;4.90;;;2.90;;
78840;SDS011;68379;47.190;27.558;2023-07-08T05:57:38;7.30;;;2.60;;
78840;SDS011;68379;47.190;27.558;2023-07-08T06:00:09;6.60;;;2.70;;
78840;SDS011;68379;47.190;27.558;2023-07-08T06:02:39;5.40;;;3.00;;
78840;SDS011;68379;47.190;27.558;2023-07-08T06:05:08;4.30;;;2.80;;
78840;SDS011;68379;47.190;27.558;2023-07-08T06:07:37;7.60;;;3.30;;
78840;SDS011;68379;47.190;27.558;2023-07-08T06:10:08;4.50;;;2.50;;
78840;SDS011;68379;47.190;27.558;2023-07-08T06:12:37;4.50;;;2.60;;
78840;SDS011;68379;47.190;27.558;2023-07-08T06:15:07;4.80;;;3.00;;
78840;SDS011;68379;47.190;27.558;2023-07-08T06:17:39;6.40;;;2.90;;
78840;SDS011;68379;47.190;27.558;2023-07-08T06:20:08;3.70;;;2.30;;
78840;SDS011;68379;47.190;27.558;2023-07-08T06:22:38;5.00;;;2.80;;
78840;SDS011;68379;47.190;27.558;2023-07-08T06:25:08;6.60;;;2.40;;
78840;SDS011;68379;47.190;27.558;2023-07-08T06:27:37;5.80;;;2.80;;
78840;SDS011;68379;47.190;27.558;2023-07-08T06:30:07;5.20;;;2.50;;
78840;SDS011;68379;47.190;27.558;2023-07-08T06:32:37;4.90;;;3.10;;
78840;SDS011;68379;47.190;27.558;2023-07-08T06:35:06;6.30;;;3.00;;
78840;SDS011;68379;47.190;27.558;2023-07-08T06:37:36;5.90;;;2.90;;
78840;SDS011;68379;47.190;27.558;2023-07-08T06:40:07;4.90;;;2.70;;
78840;SDS011;68379;47.190;27.558;2023-07-08T06:42:37;5.00;;;3.40;;
78840;SDS011;68379;47.190;27.558;2023-07-08T06:45:06;4.50;;;2.80;;
78840;SDS011;68379;47.190;27.558;2023-07-08T06:47:36;8.30;;;2.90;;
78840;SDS011;68379;47.190;27.558;2023-07-08T06:50:07;5.20;;;2.90;;
78840;SDS011;68379;47.190;27.558;2023-07-08T06:52:36;6.00;;;2.50;;
78840;SDS011;68379;47.190;27.558;2023-07-08T06:55:06;5.50;;;2.50;;
78840;SDS011;68379;47.190;27.558;2023-07-08T06:57:36;3.90;;;2.80;;
78840;SDS011;68379;47.190;27.558;2023-07-08T07:00:07;5.10;;;2.40;;
78840;SDS011;68379;47.190;27.558;2023-07-08T07:02:37;7.30;;;2.60;;
78840;SDS011;68379;47.190;27.558;2023-07-08T07:05:07;5.60;;;2.50;;
78840;SDS011;68379;47.190;27.558;2023-07-08T07:07:37;8.00;;;3.10;;
78840;SDS011;68379;47.190;27.558;2023-07-08T07:10:07;5.20;;;2.40;;
78840;SDS011;68379;47.190;27.558;2023-07-08T07:12:37;5.20;;;3.10;;
78840;SDS011;68379;47.190;27.558;2023-07-08T07:15:07;4.80;;;2.40;;
78840;SDS011;68379;47.190;27.558;2023-07-08T07:17:36;5.40;;;2.50;;
78840;SDS011;68379;47.190;27.558;2023-07-08T07:20:07;6.50;;;2.60;;
78840;SDS011;68379;47.190;27.558;2023-07-08T07:22:37;3.90;;;2.80;;
78840;SDS011;68379;47.190;27.558;2023-07-08T07:25:06;4.40;;;2.40;;
78840;SDS011;68379;47.190;27.558;2023-07-08T07:27:36;4.80;;;3.00;;
78840;SDS011;68379;47.190;27.558;2023-07-08T07:30:06;4.30;;;2.80;;
78840;SDS011;68379;47.190;27.558;2023-07-08T07:32:40;4.80;;;2.60;;
78840;SDS011;68379;47.190;27.558;2023-07-08T07:35:09;4.50;;;2.50;;
78840;SDS011;68379;47.190;27.558;2023-07-08T07:37:41;9.70;;;2.60;;
78840;SDS011;68379;47.190;27.558;2023-07-08T07:40:12;4.70;;;2.80;;
78840;SDS011;68379;47.190;27.558;2023-07-08T07:42:42;3.70;;;2.10;;
78840;SDS011;68379;47.190;27.558;2023-07-08T07:45:12;5.60;;;2.00;;
78840;SDS011;68379;47.190;27.558;2023-07-08T07:47:42;4.90;;;2.40;;
78840;SDS011;68379;47.190;27.558;2023-07-08T07:50:11;3.40;;;2.30;;
78840;SDS011;68379;47.190;27.558;2023-07-08T07:52:40;4.80;;;2.50;;
78840;SDS011;68379;47.190;27.558;2023-07-08T07:55:10;3.70;;;2.60;;
78840;SDS011;68379;47.190;27.558;2023-07-08T07:57:39;3.70;;;2.20;;
78840;SDS011;68379;47.190;27.558;2023-07-08T08:00:13;3.20;;;2.20;;
78840;SDS011;68379;47.190;27.558;2023-07-08T08:02:42;4.80;;;2.50;;
78840;SDS011;68379;47.190;27.558;2023-07-08T08:05:12;4.40;;;2.50;;
78840;SDS011;68379;47.190;27.558;2023-07-08T08:07:41;5.80;;;2.70;;
78840;SDS011;68379;47.190;27.558;2023-07-08T08:10:11;4.20;;;2.20;;
78840;SDS011;68379;47.190;27.558;2023-07-08T08:12:41;3.50;;;2.50;;
78840;SDS011;68379;47.190;27.558;2023-07-08T08:15:11;4.10;;;2.50;;
78840;SDS011;68379;47.190;27.558;2023-07-08T08:17:43;5.00;;;2.10;;
78840;SDS011;68379;47.190;27.558;2023-07-08T08:20:16;3.90;;;2.10;;
78840;SDS011;68379;47.190;27.558;2023-07-08T08:22:46;5.10;;;2.50;;
78840;SDS011;68379;47.190;27.558;2023-07-08T08:25:16;5.50;;;2.50;;
78840;SDS011;68379;47.190;27.558;2023-07-08T08:27:47;5.70;;;2.50;;
78840;SDS011;68379;47.190;27.558;2023-07-08T08:30:17;3.20;;;2.00;;
78840;SDS011;68379;47.190;27.558;2023-07-08T08:32:46;5.10;;;2.60;;
78840;SDS011;68379;47.190;27.558;2023-07-08T08:35:16;3.60;;;2.30;;
78840;SDS011;68379;47.190;27.558;2023-07-08T08:37:45;6.20;;;2.30;;
78840;SDS011;68379;47.190;27.558;2023-07-08T08:40:15;4.70;;;2.40;;
78840;SDS011;68379;47.190;27.558;2023-07-08T08:42:46;4.50;;;2.50;;
78840;SDS011;68379;47.190;27.558;2023-07-08T08:45:25;3.30;;;2.40;;
78840;SDS011;68379;47.190;27.558;2023-07-08T08:47:58;6.00;;;2.40;;
78840;SDS011;68379;47.190;27.558;2023-07-08T08:50:32;3.60;;;2.30;;
78840;SDS011;68379;47.190;27.558;2023-07-08T08:53:10;3.40;;;2.10;;
78840;SDS011;68379;47.190;27.558;2023-07-08T08:55:42;3.80;;;2.40;;
78840;SDS011;68379;47.190;27.558;2023-07-08T08:58:16;6.10;;;2.40;;
78840;SDS011;68379;47.190;27.558;2023-07-08T09:00:57;5.90;;;2.40;;
78840;SDS011;68379;47.190;27.558;2023-07-08T09:03:34;4.70;;;2.60;;
78840;SDS011;68379;47.190;27.558;2023-07-08T09:06:15;8.60;;;2.60;;
78840;SDS011;68379;47.190;27.558;2023-07-08T09:08:48;5.10;;;2.10;;
78840;SDS011;68379;47.190;27.558;2023-07-08T09:14:15;4.90;;;2.30;;
78840;SDS011;68379;47.190;27.558;2023-07-08T09:16:55;3.30;;;2.30;;
78840;SDS011;68379;47.190;27.558;2023-07-08T09:19:35;4.70;;;2.60;;
78840;SDS011;68379;47.190;27.558;2023-07-08T09:22:11;3.90;;;2.40;;
78840;SDS011;68379;47.190;27.558;2023-07-08T09:24:45;3.60;;;2.10;;
78840;SDS011;68379;47.190;27.558;2023-07-08T09:27:19;4.40;;;2.20;;
78840;SDS011;68379;47.190;27.558;2023-07-08T09:29:48;6.40;;;2.40;;
78840;SDS011;68379;47.190;27.558;2023-07-08T09:32:19;3.20;;;2.20;;
78840;SDS011;68379;47.190;27.558;2023-07-08T09:34:50;6.00;;;2.40;;
78840;SDS011;68379;47.190;27.558;2023-07-08T09:37:26;4.30;;;2.40;;
78840;SDS011;68379;47.190;27.558;2023-07-08T09:39:57;5.00;;;2.60;;
78840;SDS011;68379;47.190;27.558;2023-07-08T09:42:28;3.60;;;2.30;;
78840;SDS011;68379;47.190;27.558;2023-07-08T09:45:00;5.90;;;2.40;;
78840;SDS011;68379;47.190;27.558;2023-07-08T09:47:38;5.20;;;2.50;;
78840;SDS011;68379;47.190;27.558;2023-07-08T09:50:16;4.40;;;2.50;;
78840;SDS011;68379;47.190;27.558;2023-07-08T09:52:47;3.80;;;2.50;;
78840;SDS011;68379;47.190;27.558;2023-07-08T09:55:17;8.60;;;2.40;;
78840;SDS011;68379;47.190;27.558;2023-07-08T09:57:46;7.40;;;2.40;;
78840;SDS011;68379;47.190;27.558;2023-07-08T10:00:18;5.60;;;2.80;;
78840;SDS011;68379;47.190;27.558;2023-07-08T10:03:02;6.00;;;1.90;;
78840;SDS011;68379;47.190;27.558;2023-07-08T10:05:34;5.10;;;2.50;;
78840;SDS011;68379;47.190;27.558;2023-07-08T10:08:10;3.80;;;2.40;;
78840;SDS011;68379;47.190;27.558;2023-07-08T10:10:42;4.40;;;2.40;;
78840;SDS011;68379;47.190;27.558;2023-07-08T10:13:14;3.90;;;2.30;;
78840;SDS011;68379;47.190;27.558;2023-07-08T10:15:50;7.30;;;2.60;;
78840;SDS011;68379;47.190;27.558;2023-07-08T10:20:55;4.00;;;2.40;;
78840;SDS011;68379;47.190;27.558;2023-07-08T10:23:33;4.70;;;2.20;;
78840;SDS011;68379;47.190;27.558;2023-07-08T10:26:10;4.80;;;2.20;;
78840;SDS011;68379;47.190;27.558;2023-07-08T10:28:53;8.40;;;2.40;;
78840;SDS011;68379;47.190;27.558;2023-07-08T10:31:37;5.70;;;2.00;;
78840;SDS011;68379;47.190;27.558;2023-07-08T10:34:18;7.70;;;2.20;;
78840;SDS011;68379;47.190;27.558;2023-07-08T10:37:03;4.80;;;2.20;;
78840;SDS011;68379;47.190;27.558;2023-07-08T10:39:51;3.80;;;2.50;;
78840;SDS011;68379;47.190;27.558;2023-07-08T10:42:38;3.60;;;2.30;;
78840;SDS011;68379;47.190;27.558;2023-07-08T10:45:20;4.80;;;2.20;;
78840;SDS011;68379;47.190;27.558;2023-07-08T10:48:06;2.90;;;2.00;;
78840;SDS011;68379;47.190;27.558;2023-07-08T10:50:53;4.10;;;2.30;;
78840;SDS011;68379;47.190;27.558;2023-07-08T10:53:35;3.00;;;1.90;;
78840;SDS011;68379;47.190;27.558;2023-07-08T10:56:20;2.40;;;1.50;;
78840;SDS011;68379;47.190;27.558;2023-07-08T10:59:06;3.60;;;1.70;;
78840;SDS011;68379;47.190;27.558;2023-07-08T11:01:56;4.90;;;2.30;;
78840;SDS011;68379;47.190;27.558;2023-07-08T11:04:40;3.00;;;1.80;;
78840;SDS011;68379;47.190;27.558;2023-07-08T11:07:27;2.60;;;1.90;;
78840;SDS011;68379;47.190;27.558;2023-07-08T11:12:31;2.80;;;1.80;;
78840;SDS011;68379;47.190;27.558;2023-07-08T11:15:13;2.60;;;1.70;;
78840;SDS011;68379;47.190;27.558;2023-07-08T11:17:51;6.20;;;2.30;;
78840;SDS011;68379;47.190;27.558;2023-07-08T11:20:26;4.40;;;1.70;;
78840;SDS011;68379;47.190;27.558;2023-07-08T11:23:03;4.10;;;1.90;;
78840;SDS011;68379;47.190;27.558;2023-07-08T11:26:03;3.50;;;1.90;;
78840;SDS011;68379;47.190;27.558;2023-07-08T11:28:41;5.10;;;1.70;;
78840;SDS011;68379;47.190;27.558;2023-07-08T11:31:11;4.40;;;2.10;;
78840;SDS011;68379;47.190;27.558;2023-07-08T11:33:42;8.60;;;2.00;;
78840;SDS011;68379;47.190;27.558;2023-07-08T11:36:12;3.80;;;2.20;;
78840;SDS011;68379;47.190;27.558;2023-07-08T11:38:48;3.50;;;1.70;;
78840;SDS011;68379;47.190;27.558;2023-07-08T11:41:21;3.50;;;1.90;;
78840;SDS011;68379;47.190;27.558;2023-07-08T11:43:55;2.80;;;1.70;;
78840;SDS011;68379;47.190;27.558;2023-07-08T11:46:27;2.90;;;1.90;;
78840;SDS011;68379;47.190;27.558;2023-07-08T11:49:00;3.20;;;2.50;;
78840;SDS011;68379;47.190;27.558;2023-07-08T11:51:33;3.50;;;1.90;;
78840;SDS011;68379;47.190;27.558;2023-07-08T11:54:11;3.60;;;1.90;;
78840;SDS011;68379;47.190;27.558;2023-07-08T11:56:48;4.40;;;2.00;;
78840;SDS011;68379;47.190;27.558;2023-07-08T11:59:25;4.60;;;1.90;;
78840;SDS011;68379;47.190;27.558;2023-07-08T12:02:02;3.00;;;1.70;;
78840;SDS011;68379;47.190;27.558;2023-07-08T12:04:53;4.40;;;2.10;;
78840;SDS011;68379;47.190;27.558;2023-07-08T12:07:31;4.20;;;2.20;;
78840;SDS011;68379;47.190;27.558;2023-07-08T12:10:05;5.30;;;2.40;;
78840;SDS011;68379;47.190;27.558;2023-07-08T12:12:40;4.90;;;1.80;;
78840;SDS011;68379;47.190;27.558;2023-07-08T12:15:14;4.80;;;1.90;;
78840;SDS011;68379;47.190;27.558;2023-07-08T12:17:49;3.70;;;2.10;;
78840;SDS011;68379;47.190;27.558;2023-07-08T12:20:22;6.90;;;1.90;;
78840;SDS011;68379;47.190;27.558;2023-07-08T12:22:53;3.80;;;1.80;;
78840;SDS011;68379;47.190;27.558;2023-07-08T12:25:23;3.00;;;1.60;;
78840;SDS011;68379;47.190;27.558;2023-07-08T12:27:54;2.40;;;1.70;;
78840;SDS011;68379;47.190;27.558;2023-07-08T12:30:24;3.20;;;1.70;;
78840;SDS011;68379;47.190;27.558;2023-07-08T12:32:58;4.60;;;2.10;;
78840;SDS011;68379;47.190;27.558;2023-07-08T12:35:29;5.10;;;2.80;;
78840;SDS011;68379;47.190;27.558;2023-07-08T12:38:03;3.70;;;2.00;;
78840;SDS011;68379;47.190;27.558;2023-07-08T12:40:43;3.20;;;2.10;;
78840;SDS011;68379;47.190;27.558;2023-07-08T12:43:12;2.90;;;1.90;;
78840;SDS011;68379;47.190;27.558;2023-07-08T12:45:47;2.70;;;2.20;;
78840;SDS011;68379;47.190;27.558;2023-07-08T12:48:16;3.00;;;1.90;;
78840;SDS011;68379;47.190;27.558;2023-07-08T12:50:45;4.10;;;1.50;;
78840;SDS011;68379;47.190;27.558;2023-07-08T12:53:17;2.60;;;1.60;;
78840;SDS011;68379;47.190;27.558;2023-07-08T12:55:47;3.40;;;2.00;;
78840;SDS011;68379;47.190;27.558;2023-07-08T12:58:23;4.30;;;1.60;;
78840;SDS011;68379;47.190;27.558;2023-07-08T13:00:55;4.20;;;1.70;;
78840;SDS011;68379;47.190;27.558;2023-07-08T13:03:27;4.50;;;1.70;;
78840;SDS011;68379;47.190;27.558;2023-07-08T13:05:59;3.70;;;1.90;;
78840;SDS011;68379;47.190;27.558;2023-07-08T13:08:30;3.60;;;1.60;;
78840;SDS011;68379;47.190;27.558;2023-07-08T13:11:03;4.90;;;1.90;;
78840;SDS011;68379;47.190;27.558;2023-07-08T13:13:35;3.60;;;1.60;;
78840;SDS011;68379;47.190;27.558;2023-07-08T13:16:08;3.40;;;1.80;;
78840;SDS011;68379;47.190;27.558;2023-07-08T13:18:39;2.10;;;1.60;;
78840;SDS011;68379;47.190;27.558;2023-07-08T13:21:10;2.90;;;1.60;;
78840;SDS011;68379;47.190;27.558;2023-07-08T13:23:41;3.40;;;1.50;;
78840;SDS011;68379;47.190;27.558;2023-07-08T13:26:14;2.90;;;1.90;;
78840;SDS011;68379;47.190;27.558;2023-07-08T13:28:46;2.50;;;1.60;;
78840;SDS011;68379;47.190;27.558;2023-07-08T13:31:17;3.00;;;1.70;;
78840;SDS011;68379;47.190;27.558;2023-07-08T13:33:48;3.20;;;1.40;;
78840;SDS011;68379;47.190;27.558;2023-07-08T13:36:22;3.60;;;2.20;;
78840;SDS011;68379;47.190;27.558;2023-07-08T13:38:55;3.30;;;1.80;;
78840;SDS011;68379;47.190;27.558;2023-07-08T13:41:34;4.00;;;1.60;;
78840;SDS011;68379;47.190;27.558;2023-07-08T13:44:04;3.80;;;1.70;;
78840;SDS011;68379;47.190;27.558;2023-07-08T13:46:36;2.00;;;1.30;;
78840;SDS011;68379;47.190;27.558;2023-07-08T13:49:12;4.10;;;1.60;;
78840;SDS011;68379;47.190;27.558;2023-07-08T13:51:43;4.70;;;2.00;;
78840;SDS011;68379;47.190;27.558;2023-07-08T13:54:16;2.60;;;1.90;;
78840;SDS011;68379;47.190;27.558;2023-07-08T13:56:50;2.60;;;1.50;;
78840;SDS011;68379;47.190;27.558;2023-07-08T13:59:22;2.80;;;1.70;;
78840;SDS011;68379;47.190;27.558;2023-07-08T14:01:54;3.40;;;1.70;;
78840;SDS011;68379;47.190;27.558;2023-07-08T14:04:27;2.30;;;1.60;;
78840;SDS011;68379;47.190;27.558;2023-07-08T14:06:58;4.30;;;1.50;;
78840;SDS011;68379;47.190;27.558;2023-07-08T14:09:27;4.90;;;1.50;;
78840;SDS011;68379;47.190;27.558;2023-07-08T14:11:56;4.90;;;1.40;;
78840;SDS011;68379;47.190;27.558;2023-07-08T14:14:26;2.80;;;1.60;;
78840;SDS011;68379;47.190;27.558;2023-07-08T14:16:55;3.90;;;1.60;;
78840;SDS011;68379;47.190;27.558;2023-07-08T14:19:24;2.70;;;1.50;;
78840;SDS011;68379;47.190;27.558;2023-07-08T14:21:56;2.50;;;1.40;;
78840;SDS011;68379;47.190;27.558;2023-07-08T14:24:30;3.40;;;1.70;;
78840;SDS011;68379;47.190;27.558;2023-07-08T14:27:00;3.60;;;1.50;;
78840;SDS011;68379;47.190;27.558;2023-07-08T14:29:29;4.90;;;1.60;;
78840;SDS011;68379;47.190;27.558;2023-07-08T14:31:58;5.70;;;1.50;;
78840;SDS011;68379;47.190;27.558;2023-07-08T14:34:27;3.00;;;1.30;;
78840;SDS011;68379;47.190;27.558;2023-07-08T14:36:56;6.70;;;1.60;;
78840;SDS011;68379;47.190;27.558;2023-07-08T14:39:26;2.80;;;1.60;;
78840;SDS011;68379;47.190;27.558;2023-07-08T14:41:55;2.50;;;1.60;;
78840;SDS011;68379;47.190;27.558;2023-07-08T14:44:25;3.00;;;1.20;;
78840;SDS011;68379;47.190;27.558;2023-07-08T14:46:59;1.90;;;1.30;;
78840;SDS011;68379;47.190;27.558;2023-07-08T14:49:28;4.50;;;1.50;;
78840;SDS011;68379;47.190;27.558;2023-07-08T14:51:57;3.30;;;1.30;;
78840;SDS011;68379;47.190;27.558;2023-07-08T14:54:26;3.70;;;1.70;;
78840;SDS011;68379;47.190;27.558;2023-07-08T14:56:55;2.20;;;1.30;;
78840;SDS011;68379;47.190;27.558;2023-07-08T14:59:26;3.60;;;1.60;;
78840;SDS011;68379;47.190;27.558;2023-07-08T15:01:58;2.60;;;1.30;;
78840;SDS011;68379;47.190;27.558;2023-07-08T15:04:30;3.80;;;1.60;;
78840;SDS011;68379;47.190;27.558;2023-07-08T15:06:59;5.20;;;1.90;;
78840;SDS011;68379;47.190;27.558;2023-07-08T15:09:29;2.90;;;1.20;;
78840;SDS011;68379;47.190;27.558;2023-07-08T15:11:58;2.80;;;1.40;;